createdAt,value
2017-10-17T00:03:55.947Z,0
2017-10-17T00:13:55.883Z,0
2017-10-17T00:23:55.833Z,0
2017-10-17T00:33:55.906Z,0
2017-10-17T00:43:55.804Z,0
2017-10-17T00:53:55.916Z,0
2017-10-17T01:03:55.862Z,0
2017-10-17T01:13:55.889Z,0
2017-10-17T01:23:56.679Z,0
2017-10-17T01:33:55.881Z,0
2017-10-17T01:43:55.959Z,0
2017-10-17T01:53:55.870Z,0
2017-10-17T02:03:55.925Z,0
2017-10-17T02:13:55.909Z,0
2017-10-17T02:23:55.907Z,0
2017-10-17T02:33:55.869Z,0
2017-10-17T02:43:55.903Z,0
2017-10-17T02:53:55.842Z,0
2017-10-17T03:03:55.883Z,0
2017-10-17T03:13:55.960Z,0
2017-10-17T03:23:55.834Z,0
2017-10-17T03:33:55.849Z,0
2017-10-17T03:43:55.824Z,0
2017-10-17T03:53:55.891Z,0
2017-10-17T04:03:55.932Z,0
2017-10-17T04:13:56.311Z,0
2017-10-17T04:23:55.903Z,0
2017-10-17T04:33:55.821Z,0
2017-10-17T04:43:55.967Z,0
2017-10-17T04:53:55.898Z,0
2017-10-17T05:03:55.900Z,0
2017-10-17T05:13:55.853Z,0
2017-10-17T05:23:55.890Z,0
2017-10-17T05:33:55.834Z,0
2017-10-17T05:43:55.871Z,0
2017-10-17T05:53:55.861Z,0
2017-10-17T06:03:55.814Z,0
2017-10-17T06:13:55.971Z,5
2017-10-17T06:23:55.840Z,10
2017-10-17T06:33:55.802Z,15
2017-10-17T06:43:55.897Z,15
2017-10-17T06:53:55.879Z,25
2017-10-17T07:03:55.859Z,25
2017-10-17T07:13:55.860Z,25
2017-10-17T07:23:56.281Z,40
2017-10-17T07:33:56.031Z,45
2017-10-17T07:43:55.864Z,50
2017-10-17T07:53:55.992Z,65
2017-10-17T08:03:55.916Z,75
2017-10-17T08:13:55.816Z,75
2017-10-17T08:23:55.985Z,80
2017-10-17T08:33:55.856Z,75
2017-10-17T08:43:55.846Z,80
2017-10-17T08:53:55.923Z,85
2017-10-17T09:03:55.888Z,85
2017-10-17T09:13:55.883Z,85
2017-10-17T09:23:55.938Z,95
2017-10-17T09:33:56.083Z,100
2017-10-17T09:43:55.943Z,105
2017-10-17T09:53:55.994Z,115
2017-10-17T10:03:56.605Z,115
2017-10-17T10:13:57.270Z,115
2017-10-17T10:23:56.479Z,115
2017-10-17T10:33:56.005Z,115
2017-10-17T10:43:55.998Z,115
2017-10-17T10:53:56.009Z,120
2017-10-17T11:03:56.009Z,100
2017-10-17T11:13:56.087Z,110
2017-10-17T11:23:56.429Z,110
2017-10-17T11:33:56.048Z,115
2017-10-17T11:43:56.190Z,115
2017-10-17T11:53:56.091Z,110
2017-10-17T12:03:56.709Z,110
2017-10-17T12:14:00.053Z,105
2017-10-17T12:23:56.317Z,100
2017-10-17T12:33:56.258Z,100
2017-10-17T12:43:56.485Z,95
2017-10-17T12:53:56.403Z,95
2017-10-17T13:03:56.124Z,90
2017-10-17T13:13:56.096Z,85
2017-10-17T13:23:56.209Z,90
2017-10-17T13:33:56.172Z,80
2017-10-17T13:43:56.511Z,80
2017-10-17T13:53:56.118Z,70
2017-10-17T14:03:56.223Z,65
2017-10-17T14:13:56.277Z,60
2017-10-17T14:23:56.098Z,60
2017-10-17T14:33:56.077Z,55
2017-10-17T14:43:56.487Z,45
2017-10-17T14:53:56.069Z,40
2017-10-17T15:03:56.131Z,35
2017-10-17T15:13:56.132Z,30
2017-10-17T15:23:56.581Z,20
2017-10-17T15:33:56.160Z,15
2017-10-17T15:43:56.108Z,10
2017-10-17T15:53:56.338Z,10
2017-10-17T16:03:56.131Z,5
2017-10-17T16:13:56.712Z,5
2017-10-17T16:23:56.080Z,0
2017-10-17T16:33:56.085Z,0
2017-10-17T16:43:56.021Z,0
2017-10-17T16:53:55.989Z,0
2017-10-17T17:03:56.023Z,0
2017-10-17T17:13:56.067Z,0
2017-10-17T17:23:56.067Z,0
2017-10-17T17:33:56.092Z,0
2017-10-17T17:43:56.032Z,0
2017-10-17T17:53:56.086Z,0
2017-10-17T18:03:56.173Z,0
2017-10-17T18:13:56.177Z,0
2017-10-17T18:23:56.031Z,0
2017-10-17T18:33:56.098Z,0
2017-10-17T18:43:56.867Z,0
2017-10-17T18:53:56.134Z,0
2017-10-17T19:03:56.102Z,0
2017-10-17T19:13:56.123Z,0
2017-10-17T19:23:56.128Z,0
2017-10-17T19:33:56.115Z,0
2017-10-17T19:43:56.115Z,0
2017-10-17T19:53:56.137Z,0
2017-10-17T20:03:56.049Z,0
2017-10-17T20:13:56.240Z,0
2017-10-17T20:23:56.129Z,0
2017-10-17T20:33:56.120Z,0
2017-10-17T20:43:56.315Z,0
2017-10-17T20:53:56.578Z,0
2017-10-17T21:03:56.533Z,0
2017-10-17T21:13:56.443Z,0
2017-10-17T21:23:57.139Z,0
2017-10-17T21:33:56.452Z,0
2017-10-17T21:43:56.215Z,0
2017-10-17T21:53:56.131Z,0
2017-10-17T22:03:56.087Z,0
2017-10-17T22:13:56.833Z,0
2017-10-17T22:24:35.124Z,0
2017-10-17T22:33:56.101Z,0
2017-10-17T22:43:56.263Z,0
2017-10-17T22:53:57.221Z,0
2017-10-17T23:03:56.032Z,0
2017-10-17T23:13:56.146Z,0
2017-10-17T23:23:56.111Z,0
2017-10-17T23:33:56.151Z,0
2017-10-17T23:43:56.189Z,0
2017-10-17T23:53:56.037Z,0
